Utopia, New York
Current Conditions -  °F | °C
As of 2:51 AM on Sunday 26 Oct 2014 (Local Time) from KLGA Reporting Station
Broken Clouds Broken Clouds  
Wind Chill: 59°   Ceiling: 11000
Heat Index: 59°   Visibility: 10mi
Dew Point: 49°   Wind: 6mph
Humidity: 69%   Direction: 270°W
Pressure: 29.55"   Gusts: NA
Location:  40.7279°N, 73.7922°W
Report Text: KLGA 260651Z 27005KT 10SM FEW060 BKN110 15/09 A2955 RMK AO2 SLP007 T01500094
Loading
Personal Weather Stations






























Interactive Weather Map
Tropical Storm Tracking
New forecast layout! Learn more

10-Day Weather Forecast

Advertisements
Track Severe Weather on mobile